Time;durP1;ratioP1;P1;durP2;ratioP2;P2;SDS_P1;SDS_P2;PMS_P1;PMS_P2;Temp;Humidity;BMP_temperature;BMP_pressure;BME280_temperature;BME280_humidity;BME280_pressure;Samples;Min_cycle;Max_cycle;Signal;HPM_P1;HPM_P2
2022/06/09 00:02:04;;;;;;;10.95;3.20;;;16.50;99.90;;;;;;5036678;28;20017;-75
2022/06/09 00:04:35;;;;;;;12.68;2.42;;;16.50;99.90;;;;;;5037208;28;20020;-75
2022/06/09 00:07:17;;;;;;;11.15;3.45;;;16.40;99.90;;;;;;5021585;28;20020;-75
2022/06/09 00:09:55;;;;;;;15.77;3.53;;;16.40;99.90;;;;;;5011295;28;20052;-75
2022/06/09 00:12:23;;;;;;;9.55;2.63;;;16.40;99.90;;;;;;5034374;28;20421;-75
2022/06/09 00:14:49;;;;;;;17.27;4.28;;;16.30;99.90;;;;;;5007323;28;20025;-75
2022/06/09 00:17:15;;;;;;;10.48;2.95;;;16.30;99.90;;;;;;5020259;28;20030;-75
2022/06/09 00:19:41;;;;;;;15.88;3.45;;;16.20;99.90;;;;;;5014697;28;20029;-76
2022/06/09 00:22:07;;;;;;;8.35;3.17;;;16.10;99.90;;;;;;5011386;28;20032;-75
2022/06/09 00:24:33;;;;;;;10.75;3.33;;;16.00;99.90;;;;;;5037991;28;20025;-75
2022/06/09 00:26:58;;;;;;;15.23;3.80;;;16.00;99.90;;;;;;5033330;28;20049;-76
2022/06/09 00:29:25;;;;;;;8.10;3.28;;;15.90;99.90;;;;;;5024595;28;20072;-75
2022/06/09 00:31:50;;;;;;;15.63;3.90;;;15.80;99.90;;;;;;5032035;28;20026;-75
2022/06/09 00:34:16;;;;;;;10.48;3.92;;;15.70;99.90;;;;;;5032993;28;20026;-75
2022/06/09 00:36:42;;;;;;;13.63;3.42;;;15.60;99.90;;;;;;5029804;28;20026;-74
2022/06/09 00:39:08;;;;;;;6.82;3.25;;;15.60;99.90;;;;;;5037465;28;20021;-75
2022/06/09 00:41:39;;;;;;;13.13;3.53;;;15.60;99.90;;;;;;5032623;28;20061;-75
2022/06/09 00:44:21;;;;;;;11.30;4.05;;;15.50;99.90;;;;;;5037489;28;20014;-76
2022/06/09 00:46:54;;;;;;;8.95;3.67;;;15.50;99.90;;;;;;5036712;28;20017;-74
2022/06/09 00:49:27;;;;;;;18.88;4.05;;;15.50;99.90;;;;;;5004057;28;20124;-75
2022/06/09 00:51:56;;;;;;;9.70;4.20;;;15.50;99.90;;;;;;5034362;28;20025;-75
2022/06/09 00:54:28;;;;;;;13.98;3.80;;;15.40;99.90;;;;;;5018951;28;20076;-74
2022/06/09 00:57:17;;;;;;;9.73;4.47;;;15.40;99.90;;;;;;5031205;28;20082;-75
2022/06/09 00:59:46;;;;;;;10.57;3.95;;;15.30;99.90;;;;;;5014212;28;20057;-75
2022/06/09 01:02:15;;;;;;;11.05;4.13;;;15.20;99.90;;;;;;5002287;28;20037;-75
2022/06/09 01:04:43;;;;;;;18.73;4.82;;;15.20;99.90;;;;;;5006384;28;20105;-75
2022/06/09 01:07:11;;;;;;;16.00;3.78;;;15.20;99.90;;;;;;5021852;28;20010;-74
2022/06/09 01:09:37;;;;;;;14.00;4.07;;;15.10;99.90;;;;;;5008352;28;20021;-75
2022/06/09 01:12:23;;;;;;;16.73;4.15;;;15.10;99.90;;;;;;5025145;28;20091;-75
2022/06/09 01:14:49;;;;;;;9.38;4.07;;;15.10;99.90;;;;;;5023755;28;20025;-74
2022/06/09 01:17:30;;;;;;;18.10;3.70;;;15.10;99.90;;;;;;5031794;28;20425;-75
2022/06/09 01:19:56;;;;;;;15.63;4.57;;;15.10;99.90;;;;;;5026055;28;20033;-75
2022/06/09 01:23:03;;;;;;;11.35;4.18;;;15.00;99.90;;;;;;5013442;28;20398;-75
2022/06/09 01:25:47;;;;;;;10.63;3.45;;;15.00;99.90;;;;;;5015577;28;20030;-75
2022/06/09 01:28:25;;;;;;;11.90;3.85;;;15.00;99.90;;;;;;5034614;28;20498;-74
2022/06/09 01:31:03;;;;;;;16.38;3.95;;;14.90;99.90;;;;;;5016947;28;20098;-76
2022/06/09 01:33:40;;;;;;;10.18;3.42;;;15.00;99.90;;;;;;5033494;28;20370;-76
2022/06/09 01:36:16;;;;;;;12.93;4.25;;;14.90;99.90;;;;;;5034664;28;20037;-75
2022/06/09 01:38:46;;;;;;;14.10;4.22;;;14.90;99.90;;;;;;5030824;28;20101;-75
2022/06/09 01:41:14;;;;;;;9.40;4.30;;;14.90;99.90;;;;;;5030481;28;20375;-74
2022/06/09 01:43:41;;;;;;;14.15;3.63;;;14.90;99.90;;;;;;5016646;28;20268;-75
2022/06/09 01:46:24;;;;;;;11.30;4.15;;;14.90;99.90;;;;;;5034782;28;20009;-75
2022/06/09 01:48:54;;;;;;;18.77;4.05;;;14.90;99.90;;;;;;5033002;28;20094;-75
2022/06/09 01:51:22;;;;;;;13.38;4.53;;;15.00;99.90;;;;;;5027750;28;20026;-75
2022/06/09 01:53:48;;;;;;;19.80;4.80;;;15.00;99.90;;;;;;5029614;28;20112;-75
2022/06/09 01:56:31;;;;;;;19.63;5.38;;;15.00;99.90;;;;;;5017605;28;20088;-75
2022/06/09 01:59:07;;;;;;;15.93;5.78;;;15.00;99.90;;;;;;5034508;28;20473;-74
2022/06/09 02:01:40;;;;;;;13.88;4.20;;;15.00;99.90;;;;;;5033694;28;20104;-75
2022/06/09 02:04:14;;;;;;;27.02;4.78;;;15.00;99.90;;;;;;5014796;28;20045;-76
2022/06/09 02:06:42;;;;;;;15.93;5.25;;;15.00;99.90;;;;;;5030430;28;20022;-75
2022/06/09 02:09:08;;;;;;;13.57;4.70;;;15.10;99.90;;;;;;5033556;28;20017;-76
2022/06/09 02:11:46;;;;;;;14.80;4.72;;;15.10;99.90;;;;;;5032950;28;20034;-74
2022/06/09 02:14:12;;;;;;;11.73;3.65;;;15.10;99.90;;;;;;5032121;28;20092;-74
2022/06/09 02:16:37;;;;;;;18.65;4.93;;;15.10;99.90;;;;;;5032020;28;20017;-75
2022/06/09 02:19:05;;;;;;;25.73;4.55;;;15.10;99.90;;;;;;5034174;28;20089;-75
2022/06/09 02:21:34;;;;;;;22.73;4.63;;;15.10;99.90;;;;;;5015062;28;20018;-74
2022/06/09 02:24:00;;;;;;;19.92;5.68;;;15.10;99.90;;;;;;5031434;28;20018;-74
2022/06/09 02:26:27;;;;;;;24.33;4.97;;;15.00;99.90;;;;;;5031729;28;20089;-75
2022/06/09 02:28:53;;;;;;;17.83;5.25;;;15.00;99.90;;;;;;5026138;28;20479;-74
2022/06/09 02:31:20;;;;;;;16.98;4.57;;;14.90;99.90;;;;;;5022690;28;20022;-74
2022/06/09 02:33:47;;;;;;;25.90;5.60;;;14.80;99.90;;;;;;5023873;28;20026;-74
2022/06/09 02:36:13;;;;;;;24.05;6.20;;;14.70;99.90;;;;;;5035816;28;20033;-74
2022/06/09 02:38:39;;;;;;;18.35;5.15;;;14.60;99.90;;;;;;5030317;28;20077;-75
2022/06/09 02:41:06;;;;;;;18.30;3.92;;;14.60;99.90;;;;;;5034726;28;20453;-75
2022/06/09 02:43:32;;;;;;;18.23;5.43;;;14.60;99.90;;;;;;5035688;28;20028;-75
2022/06/09 02:45:59;;;;;;;13.88;5.72;;;14.70;99.90;;;;;;5037537;28;20016;-74
2022/06/09 02:48:25;;;;;;;15.98;4.68;;;14.70;99.90;;;;;;5039722;28;20080;-75
2022/06/09 02:50:52;;;;;;;16.33;5.03;;;14.70;99.90;;;;;;5016875;28;20025;-76
2022/06/09 02:53:21;;;;;;;12.68;4.80;;;14.70;99.90;;;;;;5014744;28;20053;-74
2022/06/09 02:55:48;;;;;;;17.23;4.50;;;14.70;99.90;;;;;;5032573;28;20381;-74
2022/06/09 02:58:14;;;;;;;15.25;5.13;;;14.70;99.90;;;;;;5028274;28;20018;-74
2022/06/09 03:00:40;;;;;;;15.23;4.40;;;14.60;99.90;;;;;;5026117;28;20116;-74
2022/06/09 03:03:10;;;;;;;16.67;5.57;;;14.60;99.90;;;;;;5036845;28;20018;-74
2022/06/09 03:05:37;;;;;;;15.15;4.78;;;14.60;99.90;;;;;;5012296;28;20022;-75
2022/06/09 03:08:06;;;;;;;17.05;5.18;;;14.60;99.90;;;;;;5033475;28;20017;-75
2022/06/09 03:10:33;;;;;;;17.80;4.72;;;14.50;99.90;;;;;;5033397;28;20025;-74
2022/06/09 03:12:59;;;;;;;14.50;4.70;;;14.40;99.90;;;;;;5018376;28;20025;-74
2022/06/09 03:15:25;;;;;;;16.60;3.95;;;14.40;99.90;;;;;;5037031;28;20027;-74
2022/06/09 03:17:51;;;;;;;17.92;5.85;;;14.40;99.90;;;;;;5020190;28;20409;-74
2022/06/09 03:20:20;;;;;;;26.10;5.25;;;14.40;99.90;;;;;;5038689;28;20064;-75
2022/06/09 03:22:47;;;;;;;15.13;3.90;;;14.50;99.90;;;;;;5004808;28;20080;-74
2022/06/09 03:25:13;;;;;;;18.45;4.07;;;14.50;99.90;;;;;;5021315;28;20028;-75
2022/06/09 03:27:39;;;;;;;17.70;4.65;;;14.50;99.90;;;;;;5025311;28;20030;-74
2022/06/09 03:30:06;;;;;;;18.63;4.80;;;14.50;99.90;;;;;;5023136;28;20014;-75
2022/06/09 03:32:32;;;;;;;20.92;4.43;;;14.50;99.90;;;;;;5011060;28;20541;-74
2022/06/09 03:34:58;;;;;;;14.00;5.30;;;14.50;99.90;;;;;;5024813;28;20072;-74
2022/06/09 03:37:24;;;;;;;20.55;4.63;;;14.50;99.90;;;;;;5030995;28;20556;-75
2022/06/09 03:39:50;;;;;;;11.68;4.35;;;14.60;99.90;;;;;;5009891;28;20059;-75
2022/06/09 03:42:16;;;;;;;20.77;5.03;;;14.60;99.90;;;;;;5033005;28;20025;-75
2022/06/09 03:44:42;;;;;;;17.08;5.53;;;14.60;99.90;;;;;;5020808;28;20520;-75
2022/06/09 03:47:10;;;;;;;14.88;4.03;;;14.60;99.90;;;;;;5033821;28;20416;-74
2022/06/09 03:49:37;;;;;;;16.60;4.55;;;14.60;99.90;;;;;;5028610;28;20024;-74
2022/06/09 03:52:03;;;;;;;25.20;5.57;;;14.60;99.90;;;;;;5034916;28;20109;-75
2022/06/09 03:54:29;;;;;;;23.25;4.53;;;14.60;99.90;;;;;;5022092;28;20030;-75
2022/06/09 03:56:54;;;;;;;15.60;5.75;;;14.50;99.90;;;;;;5027173;28;20112;-75
2022/06/09 03:59:20;;;;;;;21.13;4.63;;;14.50;99.90;;;;;;5030911;28;20025;-74
2022/06/09 04:01:46;;;;;;;18.58;5.47;;;14.50;99.90;;;;;;5031201;28;20044;-74
2022/06/09 04:04:12;;;;;;;22.10;5.13;;;14.40;99.90;;;;;;5008801;28;20022;-74
2022/06/09 04:06:38;;;;;;;16.60;5.20;;;14.30;99.90;;;;;;5037728;28;20029;-74
2022/06/09 04:09:05;;;;;;;22.52;5.13;;;14.30;99.90;;;;;;5030610;28;20041;-74
2022/06/09 04:11:32;;;;;;;18.83;4.45;;;14.30;99.90;;;;;;5034869;28;20029;-74
2022/06/09 04:13:58;;;;;;;16.75;4.65;;;14.20;99.90;;;;;;5034198;28;20025;-75
2022/06/09 04:16:37;;;;;;;14.80;4.75;;;14.20;99.90;;;;;;5037467;28;20100;-75
2022/06/09 04:19:07;;;;;;;19.65;4.78;;;14.20;99.90;;;;;;5026164;28;20025;-74
2022/06/09 04:21:35;;;;;;;16.50;4.85;;;14.10;99.90;;;;;;5020256;28;20040;-75
2022/06/09 04:24:01;;;;;;;20.50;5.90;;;14.10;99.90;;;;;;5034385;28;20429;-75
2022/06/09 04:26:30;;;;;;;15.73;4.78;;;14.10;99.90;;;;;;5008580;28;20018;-75
2022/06/09 04:28:56;;;;;;;23.00;4.90;;;14.10;99.90;;;;;;5031833;28;20026;-75
2022/06/09 04:31:22;;;;;;;25.55;6.35;;;14.00;99.90;;;;;;5019577;28;20080;-74
2022/06/09 04:33:48;;;;;;;17.40;5.68;;;14.10;99.90;;;;;;5022293;28;20398;-75
2022/06/09 04:36:17;;;;;;;18.83;5.45;;;14.00;99.90;;;;;;5009873;28;20074;-75
2022/06/09 04:38:43;;;;;;;21.80;4.53;;;14.00;99.90;;;;;;5028210;28;20013;-75
2022/06/09 04:41:11;;;;;;;28.70;6.82;;;14.00;99.90;;;;;;5005725;28;20030;-73
2022/06/09 04:43:41;;;;;;;25.13;5.22;;;14.00;99.90;;;;;;5027797;28;20013;-74
2022/06/09 04:46:10;;;;;;;28.88;6.78;;;14.10;99.90;;;;;;5008960;28;20022;-74
2022/06/09 04:48:36;;;;;;;15.10;4.32;;;14.10;99.90;;;;;;5030756;28;20060;-74
2022/06/09 04:51:10;;;;;;;15.98;5.18;;;14.10;99.90;;;;;;5030359;28;20030;-74
2022/06/09 04:53:37;;;;;;;24.92;5.45;;;14.10;99.90;;;;;;5036470;28;20021;-74
2022/06/09 04:56:04;;;;;;;16.73;5.03;;;14.10;99.90;;;;;;5033359;28;20502;-73
2022/06/09 04:58:30;;;;;;;24.02;6.28;;;14.20;99.90;;;;;;5018111;28;20120;-75
2022/06/09 05:00:55;;;;;;;17.55;5.07;;;14.20;99.90;;;;;;5036974;28;20056;-74
2022/06/09 05:03:23;;;;;;;23.42;5.10;;;14.30;99.90;;;;;;5018788;28;20022;-74
2022/06/09 05:05:50;;;;;;;15.10;5.57;;;14.30;99.90;;;;;;5018916;28;20029;-74
2022/06/09 05:08:17;;;;;;;22.08;5.32;;;14.30;99.90;;;;;;5004077;28;20525;-73
2022/06/09 05:10:45;;;;;;;16.52;5.30;;;14.40;99.90;;;;;;5020560;28;20048;-74
2022/06/09 05:13:13;;;;;;;28.92;5.93;;;14.40;99.90;;;;;;5021660;28;20021;-74
2022/06/09 05:15:49;;;;;;;28.58;5.32;;;14.50;99.90;;;;;;5029641;28;20022;-74
2022/06/09 05:18:15;;;;;;;20.67;6.03;;;14.50;99.90;;;;;;5027594;28;20029;-74
2022/06/09 05:20:41;;;;;;;24.73;5.60;;;14.50;99.90;;;;;;5014676;28;20030;-74
2022/06/09 05:23:07;;;;;;;32.05;6.70;;;14.60;99.90;;;;;;5033501;28;20539;-74
2022/06/09 05:25:33;;;;;;;17.67;4.88;;;14.70;99.90;;;;;;5030089;28;20018;-74
2022/06/09 05:27:59;;;;;;;27.17;5.82;;;14.70;99.90;;;;;;5030835;28;20014;-74
2022/06/09 05:30:25;;;;;;;15.70;5.45;;;14.80;99.90;;;;;;5007179;28;20490;-74
2022/06/09 05:32:52;;;;;;;21.77;5.85;;;14.80;99.90;;;;;;5002838;28;20022;-75
2022/06/09 05:35:19;;;;;;;24.67;4.90;;;14.90;99.90;;;;;;5016199;28;20033;-75
2022/06/09 05:46:01;;;;;;;20.50;4.55;;;15.10;99.90;;;;;;5034385;28;20099;-75
2022/06/09 05:48:27;;;;;;;26.00;5.28;;;15.20;99.90;;;;;;5036511;28;20073;-74
2022/06/09 05:50:53;;;;;;;25.02;5.25;;;15.20;99.90;;;;;;5018613;28;20448;-75
2022/06/09 05:53:20;;;;;;;23.60;5.57;;;15.30;99.90;;;;;;5033104;28;20026;-74
2022/06/09 05:55:46;;;;;;;21.92;4.53;;;15.30;99.90;;;;;;5035698;28;20025;-74
2022/06/09 05:58:12;;;;;;;13.98;3.97;;;15.40;99.90;;;;;;5036549;28;20073;-74
2022/06/09 06:00:38;;;;;;;25.30;4.05;;;15.40;99.90;;;;;;5028244;28;20033;-75
2022/06/09 06:03:04;;;;;;;20.77;5.50;;;15.50;99.90;;;;;;5030204;28;20026;-74
2022/06/09 06:08:15;;;;;;;19.90;4.35;;;15.60;99.90;;;;;;5034763;28;20466;-75
2022/06/09 06:10:40;;;;;;;27.95;4.57;;;15.70;99.90;;;;;;5017968;28;20049;-75
2022/06/09 06:13:06;;;;;;;16.77;3.83;;;15.70;99.90;;;;;;5033478;28;20096;-74
2022/06/09 06:15:32;;;;;;;14.82;4.05;;;15.80;99.90;;;;;;5027576;28;20041;-74
2022/06/09 06:18:02;;;;;;;16.52;4.35;;;15.80;99.90;;;;;;5023023;28;20029;-75
2022/06/09 06:20:29;;;;;;;23.58;4.60;;;15.80;99.90;;;;;;5024445;28;20030;-75
2022/06/09 06:22:56;;;;;;;16.55;4.07;;;15.80;99.90;;;;;;5029673;28;20029;-75
2022/06/09 06:25:22;;;;;;;18.80;4.07;;;15.80;99.90;;;;;;5039949;28;20018;-75
2022/06/09 06:27:48;;;;;;;15.15;5.07;;;15.90;99.90;;;;;;5030955;28;20013;-75
2022/06/09 06:30:14;;;;;;;18.67;3.60;;;16.00;99.90;;;;;;5028360;28;20026;-75
2022/06/09 06:32:40;;;;;;;22.90;5.05;;;16.00;99.90;;;;;;5034611;28;20025;-75
2022/06/09 06:35:06;;;;;;;15.40;3.58;;;16.10;99.90;;;;;;5030576;28;20089;-75
2022/06/09 06:37:33;;;;;;;25.50;4.28;;;16.20;99.90;;;;;;5036462;28;20029;-74
2022/06/09 06:39:59;;;;;;;16.95;3.78;;;16.20;99.90;;;;;;5033211;28;20018;-75
2022/06/09 06:42:25;;;;;;;13.52;3.67;;;16.30;99.90;;;;;;5035815;28;20036;-74
2022/06/09 06:44:51;;;;;;;10.60;2.78;;;16.30;99.90;;;;;;5039841;28;20045;-74
2022/06/09 06:47:17;;;;;;;19.73;3.58;;;16.30;99.90;;;;;;5035108;28;20387;-75
2022/06/09 06:49:43;;;;;;;15.88;3.38;;;16.40;99.90;;;;;;5009402;28;20022;-75
2022/06/09 06:52:09;;;;;;;14.38;3.60;;;16.40;99.90;;;;;;5003386;28;20160;-75
2022/06/09 06:54:35;;;;;;;18.30;4.60;;;16.50;99.90;;;;;;5004418;28;20029;-76
2022/06/09 06:57:05;;;;;;;14.57;3.72;;;16.60;99.90;;;;;;5007351;28;20026;-75
2022/06/09 06:59:31;;;;;;;11.82;2.70;;;16.70;99.90;;;;;;5034078;28;20427;-74
2022/06/09 07:01:58;;;;;;;16.75;3.33;;;16.70;99.90;;;;;;5010972;28;20025;-74
2022/06/09 07:04:24;;;;;;;18.23;3.17;;;16.70;99.90;;;;;;5009579;28;20080;-75
2022/06/09 07:06:49;;;;;;;21.25;4.70;;;16.80;99.90;;;;;;5014700;28;20085;-74
2022/06/09 07:09:15;;;;;;;16.13;3.42;;;16.80;99.90;;;;;;5010934;28;20458;-76
2022/06/09 07:11:43;;;;;;;19.17;3.35;;;16.90;99.90;;;;;;5034945;28;20029;-75
2022/06/09 07:14:09;;;;;;;10.45;2.35;;;17.00;99.90;;;;;;5032165;28;20030;-74
2022/06/09 07:16:35;;;;;;;10.52;2.58;;;17.00;99.90;;;;;;5038843;28;20022;-75
2022/06/09 07:19:02;;;;;;;13.80;3.38;;;17.10;99.90;;;;;;5037242;28;20089;-74
2022/06/09 07:21:27;;;;;;;11.98;3.03;;;17.20;99.90;;;;;;5030936;28;20040;-74
2022/06/09 07:23:53;;;;;;;14.55;3.53;;;17.20;99.90;;;;;;5020831;28;20058;-75
2022/06/09 07:26:19;;;;;;;12.73;3.13;;;17.30;99.90;;;;;;5003021;28;20022;-74
2022/06/09 07:28:45;;;;;;;14.68;3.35;;;17.40;99.90;;;;;;5004907;28;20525;-75
2022/06/09 07:31:11;;;;;;;17.35;3.70;;;17.50;99.90;;;;;;5029929;28;20452;-75
2022/06/09 07:33:38;;;;;;;13.00;4.07;;;17.40;99.90;;;;;;5038046;28;20029;-75
2022/06/09 07:36:12;;;;;;;11.55;2.33;;;17.40;99.90;;;;;;5015258;28;20054;-75
2022/06/09 07:38:38;;;;;;;13.20;2.90;;;17.60;99.90;;;;;;5027303;28;20041;-76
2022/06/09 07:41:05;;;;;;;8.10;2.45;;;17.60;99.90;;;;;;5038472;28;20025;-76
2022/06/09 07:43:31;;;;;;;10.70;3.15;;;17.70;99.90;;;;;;5024415;28;20367;-75
2022/06/09 07:45:57;;;;;;;14.13;3.80;;;17.90;99.90;;;;;;5021034;28;20049;-75
2022/06/09 07:48:23;;;;;;;9.95;2.67;;;18.00;99.90;;;;;;5034628;28;20061;-74
2022/06/09 07:50:50;;;;;;;10.75;2.25;;;18.10;99.90;;;;;;5005914;28;20029;-74
2022/06/09 07:53:18;;;;;;;5.60;1.75;;;18.10;99.90;;;;;;5026999;28;20548;-76
2022/06/09 07:55:44;;;;;;;4.93;1.73;;;18.00;99.90;;;;;;5026359;28;20105;-74
2022/06/09 07:58:11;;;;;;;16.90;3.63;;;18.10;99.90;;;;;;5028509;28;20027;-75
2022/06/09 08:00:38;;;;;;;6.95;2.28;;;18.10;99.90;;;;;;5011886;28;20034;-74
2022/06/09 08:03:05;;;;;;;11.63;2.08;;;18.20;99.90;;;;;;5035821;28;20133;-75
2022/06/09 08:05:32;;;;;;;15.10;2.50;;;18.30;99.90;;;;;;5036201;28;20097;-75
2022/06/09 08:07:58;;;;;;;19.70;3.55;;;18.40;99.90;;;;;;5017974;28;20024;-76
2022/06/09 08:10:26;;;;;;;13.77;3.63;;;18.40;99.90;;;;;;5034010;28;20018;-75
2022/06/09 08:12:57;;;;;;;10.38;2.60;;;18.50;99.90;;;;;;5020233;28;20028;-74
2022/06/09 08:15:24;;;;;;;12.15;2.63;;;18.60;99.90;;;;;;5037196;28;20017;-74
2022/06/09 08:17:55;;;;;;;15.15;2.20;;;18.90;99.90;;;;;;5008803;28;20487;-76
2022/06/09 08:20:21;;;;;;;5.57;2.08;;;18.80;99.90;;;;;;5032315;28;20040;-76
2022/06/09 08:22:48;;;;;;;12.88;2.65;;;18.90;99.90;;;;;;5037044;28;20030;-75
2022/06/09 08:25:17;;;;;;;7.60;2.35;;;19.00;99.90;;;;;;5037461;28;20456;-75
2022/06/09 08:27:43;;;;;;;10.25;2.30;;;18.90;99.90;;;;;;5024337;28;20032;-74
2022/06/09 08:30:11;;;;;;;11.88;2.42;;;19.00;99.90;;;;;;5008661;28;20029;-75
2022/06/09 08:32:38;;;;;;;11.73;2.00;;;18.90;99.90;;;;;;5020487;28;20018;-75
2022/06/09 08:35:07;;;;;;;9.80;2.00;;;18.90;99.90;;;;;;5021328;28;20030;-75
2022/06/09 08:37:33;;;;;;;12.40;2.20;;;19.10;99.90;;;;;;5008652;28;20022;-76
2022/06/09 08:39:59;;;;;;;6.32;1.52;;;19.30;99.90;;;;;;5023474;28;20097;-75
2022/06/09 08:42:34;;;;;;;12.60;2.58;;;19.00;99.90;;;;;;5011824;28;20057;-75
2022/06/09 08:45:09;;;;;;;14.18;2.58;;;19.10;99.90;;;;;;5031874;28;20018;-76
2022/06/09 08:47:46;;;;;;;14.20;2.88;;;19.30;99.90;;;;;;5032118;28;20045;-76
2022/06/09 08:50:15;;;;;;;10.73;2.03;;;19.40;99.90;;;;;;5032007;28;20013;-75
2022/06/09 08:52:44;;;;;;;12.45;2.58;;;19.40;99.90;;;;;;5034018;28;20022;-77
2022/06/09 08:55:40;;;;;;;9.10;2.00;;;19.30;99.90;;;;;;5016598;28;20022;-76
2022/06/09 08:58:15;;;;;;;5.75;2.30;;;19.10;99.90;;;;;;5036028;28;20084;-76
2022/06/09 09:01:06;;;;;;;6.55;2.83;;;19.30;99.90;;;;;;5009090;28;20049;-76
2022/06/09 09:03:40;;;;;;;5.55;1.88;;;19.60;99.90;;;;;;4983993;28;20040;-73
2022/06/09 09:06:29;;;;;;;10.57;2.00;;;19.90;99.90;;;;;;5034436;28;20013;-74
2022/06/09 09:09:17;;;;;;;7.68;2.22;;;19.70;99.90;;;;;;5033555;28;20609;-74
2022/06/09 09:11:58;;;;;;;5.70;1.58;;;19.80;99.90;;;;;;5036033;28;20497;-74
2022/06/09 09:14:42;;;;;;;8.57;2.90;;;19.90;99.90;;;;;;5036107;28;20032;-73
2022/06/09 09:17:38;;;;;;;8.60;2.08;;;19.80;99.90;;;;;;5025429;28;20397;-74
2022/06/09 09:20:16;;;;;;;7.32;1.70;;;19.70;99.90;;;;;;5025878;28;20386;-74
2022/06/09 09:23:02;;;;;;;10.13;2.17;;;19.60;99.90;;;;;;5017321;28;20041;-74
2022/06/09 09:25:57;;;;;;;5.47;1.92;;;19.70;99.90;;;;;;5013169;28;20482;-74
2022/06/09 09:28:30;;;;;;;9.68;1.63;;;20.10;99.90;;;;;;5017184;28;20025;-75
2022/06/09 09:31:24;;;;;;;14.95;2.10;;;20.50;99.90;;;;;;5035611;28;20478;-73
2022/06/09 09:33:49;;;;;;;9.63;2.67;;;20.40;99.90;;;;;;5033955;28;20565;-73
2022/06/09 09:36:22;;;;;;;7.07;1.92;;;20.10;99.90;;;;;;5011405;28;20029;-74
2022/06/09 09:38:54;;;;;;;8.18;2.00;;;20.00;99.90;;;;;;5018491;28;20028;-74
2022/06/09 09:41:31;;;;;;;6.90;1.73;;;20.10;99.90;;;;;;5033914;28;20041;-73
2022/06/09 09:43:57;;;;;;;10.48;2.08;;;20.20;99.90;;;;;;5019436;28;20029;-72
2022/06/09 09:46:34;;;;;;;9.10;2.08;;;20.20;99.90;;;;;;5033213;28;20018;-74
2022/06/09 09:49:15;;;;;;;11.45;2.33;;;20.10;99.90;;;;;;5038317;28;20045;-73
2022/06/09 09:51:42;;;;;;;9.90;1.88;;;19.90;99.90;;;;;;5020073;28;20056;-74
2022/06/09 09:54:23;;;;;;;9.05;2.80;;;19.50;99.90;;;;;;5040045;28;20029;-73
2022/06/09 09:57:12;;;;;;;10.57;2.53;;;19.50;99.90;;;;;;5023357;28;20022;-73
2022/06/09 09:59:53;;;;;;;8.55;1.52;;;19.60;99.90;;;;;;5024531;28;20052;-73
2022/06/09 10:08:41;;;;;;;6.82;2.35;;;20.20;99.90;;;;;;4994940;28;20025;-73
2022/06/09 10:14:39;;;;;;;8.43;2.42;;;20.50;99.90;;;;;;5031079;28;20029;-75
2022/06/09 10:17:19;;;;;;;9.45;2.05;;;20.60;99.90;;;;;;5033200;28;20117;-74
2022/06/09 10:20:00;;;;;;;6.88;1.95;;;20.70;99.90;;;;;;5028419;28;20034;-73
2022/06/09 10:22:27;;;;;;;8.50;1.88;;;20.70;99.90;;;;;;5036361;28;20409;-74
2022/06/09 10:25:18;;;;;;;5.43;2.03;;;20.70;99.90;;;;;;5039199;28;20078;-72
2022/06/09 10:27:47;;;;;;;3.65;1.70;;;20.80;99.90;;;;;;5020988;28;20021;-72
2022/06/09 10:30:22;;;;;;;6.28;1.23;;;21.00;99.90;;;;;;5021470;28;20049;-73
2022/06/09 10:32:57;;;;;;;6.68;1.35;;;20.90;99.90;;;;;;5022456;28;20140;-74
2022/06/09 10:35:41;;;;;;;10.30;2.38;;;20.60;99.90;;;;;;5007826;28;20025;-72
2022/06/09 10:38:25;;;;;;;7.00;2.55;;;20.50;99.90;;;;;;5038070;28;20025;-73
2022/06/09 10:41:01;;;;;;;10.73;1.83;;;20.40;99.90;;;;;;5027562;28;20088;-72
2022/06/09 10:43:39;;;;;;;6.45;1.80;;;20.50;99.90;;;;;;5009078;28;20108;-72
2022/06/09 10:46:43;;;;;;;12.98;2.65;;;20.70;99.90;;;;;;5033762;28;20028;-74
2022/06/09 10:55:14;;;;;;;5.07;1.65;;;20.80;99.90;;;;;;5038184;28;20128;-73
2022/06/09 10:57:49;;;;;;;3.65;1.67;;;20.90;99.90;;;;;;5021191;28;20029;-73
2022/06/09 11:00:21;;;;;;;6.65;1.60;;;21.10;99.90;;;;;;5003540;28;20021;-72
2022/06/09 11:02:54;;;;;;;3.90;1.33;;;21.20;99.90;;;;;;5022046;28;20037;-71
2022/06/09 11:05:42;;;;;;;8.80;1.88;;;21.20;99.90;;;;;;5023214;28;20056;-73
2022/06/09 11:08:14;;;;;;;7.47;1.90;;;21.40;99.90;;;;;;5013173;28;20041;-74
2022/06/09 11:10:49;;;;;;;8.95;1.50;;;21.70;99.90;;;;;;5031422;28;20089;-76
2022/06/09 11:13:53;;;;;;;10.00;1.75;;;22.00;99.90;;;;;;5032457;28;20389;-73
2022/06/09 11:16:25;;;;;;;5.97;1.75;;;22.10;99.90;;;;;;4979169;28;20025;-74
2022/06/09 11:18:51;;;;;;;11.85;1.15;;;22.20;99.90;;;;;;5011961;28;20022;-73
2022/06/09 11:21:31;;;;;;;6.95;1.90;;;22.10;99.90;;;;;;5035172;28;20436;-74
2022/06/09 11:24:13;;;;;;;6.65;1.30;;;21.70;99.90;;;;;;5033118;28;20050;-72
2022/06/09 11:27:08;;;;;;;7.65;2.33;;;21.70;99.90;;;;;;5037343;28;20021;-73
2022/06/09 11:29:49;;;;;;;9.15;1.73;;;21.60;99.90;;;;;;5026688;28;20030;-73
2022/06/09 11:32:43;;;;;;;8.40;1.25;;;21.60;99.80;;;;;;5019237;28;20037;-73
2022/06/09 11:35:32;;;;;;;7.13;1.23;;;21.80;99.90;;;;;;5015191;28;20025;-72
2022/06/09 11:38:19;;;;;;;6.25;2.45;;;22.20;99.90;;;;;;5032527;28;20022;-74
2022/06/09 11:41:09;;;;;;;7.70;2.10;;;22.40;98.10;;;;;;5032588;28;20083;-74
2022/06/09 11:43:49;;;;;;;9.23;1.35;;;22.50;96.60;;;;;;5026489;28;20033;-75
2022/06/09 11:46:32;;;;;;;6.32;1.60;;;22.50;96.40;;;;;;5007218;28;20038;-74
2022/06/09 11:49:03;;;;;;;4.50;1.65;;;22.40;96.90;;;;;;5032543;28;20056;-75
2022/06/09 11:51:31;;;;;;;5.05;1.90;;;22.00;97.20;;;;;;5010521;28;20022;-74
2022/06/09 11:54:06;;;;;;;8.45;1.75;;;22.00;97.40;;;;;;5015586;28;20386;-76
2022/06/09 11:56:43;;;;;;;11.13;2.28;;;21.90;98.10;;;;;;5031346;28;20032;-74
2022/06/09 11:59:11;;;;;;;9.18;2.30;;;21.90;98.90;;;;;;5035313;28;20025;-74
2022/06/09 12:01:40;;;;;;;4.13;1.55;;;22.00;98.20;;;;;;5034445;28;20032;-74
2022/06/09 12:04:26;;;;;;;5.95;1.70;;;22.00;97.90;;;;;;5019105;28;20393;-75
2022/06/09 12:07:05;;;;;;;6.95;1.70;;;22.10;98.20;;;;;;5001529;28;20479;-76
2022/06/09 12:10:08;;;;;;;10.25;1.92;;;22.20;97.40;;;;;;5020485;28;20021;-74
2022/06/09 12:12:38;;;;;;;6.82;1.73;;;22.20;96.90;;;;;;5022450;28;20028;-74
2022/06/09 12:15:13;;;;;;;10.93;1.83;;;22.30;96.10;;;;;;5025995;28;20113;-74
2022/06/09 12:17:56;;;;;;;5.35;2.38;;;22.40;95.50;;;;;;5029515;28;20026;-76
2022/06/09 12:20:32;;;;;;;9.05;1.73;;;22.50;95.40;;;;;;5006459;28;20050;-75
2022/06/09 12:23:22;;;;;;;5.68;1.20;;;22.50;95.60;;;;;;5025141;28;20018;-74
2022/06/09 12:26:19;;;;;;;9.18;1.45;;;22.40;95.80;;;;;;5029393;28;20033;-74
2022/06/09 12:28:49;;;;;;;4.13;1.50;;;22.20;97.30;;;;;;5013245;28;20037;-73
2022/06/09 12:31:31;;;;;;;6.13;1.83;;;22.00;97.60;;;;;;5034685;28;20180;-74
2022/06/09 12:34:02;;;;;;;3.97;1.60;;;22.20;98.00;;;;;;5033700;28;20033;-73
2022/06/09 12:36:52;;;;;;;5.43;2.08;;;22.40;97.90;;;;;;5036595;28;20401;-75
2022/06/09 12:39:46;;;;;;;9.13;1.50;;;22.50;97.70;;;;;;5026084;28;20036;-73
2022/06/09 12:42:21;;;;;;;7.88;1.58;;;22.70;97.50;;;;;;5017611;28;20288;-75
2022/06/09 12:45:00;;;;;;;7.55;1.27;;;22.80;96.90;;;;;;5003211;28;20490;-73
2022/06/09 12:47:26;;;;;;;16.15;3.10;;;22.90;95.90;;;;;;5023702;28;20038;-74
2022/06/09 12:49:57;;;;;;;14.18;1.95;;;22.90;95.60;;;;;;5024433;28;20036;-75
2022/06/09 12:52:39;;;;;;;9.40;1.95;;;22.90;96.20;;;;;;5009203;28;20075;-75
2022/06/09 12:55:20;;;;;;;8.30;1.88;;;23.30;96.50;;;;;;5028563;28;20042;-74
2022/06/09 12:57:55;;;;;;;13.10;2.75;;;23.20;95.90;;;;;;5008448;28;20383;-74
2022/06/09 13:00:35;;;;;;;5.93;1.20;;;23.00;95.40;;;;;;5032894;28;20057;-74
2022/06/09 13:03:00;;;;;;;6.53;1.70;;;23.50;96.40;;;;;;5013145;28;20022;-73
2022/06/09 13:05:32;;;;;;;6.95;1.45;;;24.00;94.40;;;;;;5035012;28;20359;-75
2022/06/09 13:08:16;;;;;;;6.93;1.70;;;23.90;93.20;;;;;;5016456;28;20022;-74
2022/06/09 13:10:46;;;;;;;8.85;1.55;;;23.90;93.30;;;;;;5036961;28;20040;-74
2022/06/09 13:13:22;;;;;;;2.75;0.85;;;23.90;93.50;;;;;;5018197;28;20041;-74
2022/06/09 13:16:39;;;;;;;4.38;1.38;;;23.50;93.40;;;;;;5009435;28;20081;-75
2022/06/09 13:19:06;;;;;;;4.20;1.15;;;23.40;94.50;;;;;;5020380;28;20061;-75
2022/06/09 13:21:40;;;;;;;3.63;1.02;;;23.30;93.80;;;;;;5022081;28;20121;-75
2022/06/09 13:24:22;;;;;;;16.73;1.73;;;23.40;94.50;;;;;;5006745;28;20112;-76
2022/06/09 13:26:49;;;;;;;11.27;1.65;;;23.70;93.90;;;;;;5023546;28;20355;-76
2022/06/09 13:29:30;;;;;;;7.57;1.52;;;23.70;93.80;;;;;;5029492;28;20124;-76
2022/06/09 13:32:19;;;;;;;6.25;1.35;;;23.50;93.70;;;;;;5008383;28;20046;-76